sensor_id;sensor_type;location;lat;lon;timestamp;pressure;altitude;pressure_sealevel;temperature;humidity
63115;BME280;49208;50.874;6.466;2023-08-20T06:01:12;101076.50;;;19.95;100.00
63115;BME280;49208;50.874;6.466;2023-08-20T06:03:37;101069.69;;;20.02;100.00
63115;BME280;49208;50.874;6.466;2023-08-20T06:06:03;101068.66;;;20.05;100.00
63115;BME280;49208;50.874;6.466;2023-08-20T06:08:28;101069.53;;;20.05;100.00
63115;BME280;49208;50.874;6.466;2023-08-20T06:10:54;101073.75;;;20.09;100.00
63115;BME280;49208;50.874;6.466;2023-08-20T06:13:19;101068.41;;;20.22;100.00
63115;BME280;49208;50.874;6.466;2023-08-20T06:15:44;101061.91;;;20.52;100.00
63115;BME280;49208;50.874;6.466;2023-08-20T06:18:10;101060.53;;;21.12;100.00
63115;BME280;49208;50.874;6.466;2023-08-20T06:20:35;101065.97;;;21.50;100.00
63115;BME280;49208;50.874;6.466;2023-08-20T06:23:01;101060.41;;;21.77;100.00
63115;BME280;49208;50.874;6.466;2023-08-20T06:25:26;101056.31;;;22.09;100.00
63115;BME280;49208;50.874;6.466;2023-08-20T06:27:51;101056.94;;;22.25;100.00
63115;BME280;49208;50.874;6.466;2023-08-20T06:30:17;101063.50;;;22.34;100.00
63115;BME280;49208;50.874;6.466;2023-08-20T06:32:44;101068.47;;;22.40;100.00
63115;BME280;49208;50.874;6.466;2023-08-20T06:35:09;101072.03;;;22.40;100.00
63115;BME280;49208;50.874;6.466;2023-08-20T06:37:35;101075.09;;;22.60;99.58
63115;BME280;49208;50.874;6.466;2023-08-20T06:40:00;101073.34;;;22.94;96.07
63115;BME280;49208;50.874;6.466;2023-08-20T06:42:25;101072.69;;;23.26;95.02
63115;BME280;49208;50.874;6.466;2023-08-20T06:44:51;101073.97;;;23.56;91.67
63115;BME280;49208;50.874;6.466;2023-08-20T06:47:16;101081.03;;;23.47;89.98
63115;BME280;49208;50.874;6.466;2023-08-20T06:49:42;101078.13;;;23.15;91.84
63115;BME280;49208;50.874;6.466;2023-08-20T06:52:07;101081.38;;;23.43;93.74
63115;BME280;49208;50.874;6.466;2023-08-20T06:54:32;101083.53;;;24.39;89.89
63115;BME280;49208;50.874;6.466;2023-08-20T06:56:58;101084.22;;;25.48;85.73
63115;BME280;49208;50.874;6.466;2023-08-20T06:59:23;101080.66;;;26.48;79.21
63115;BME280;49208;50.874;6.466;2023-08-20T07:01:48;101085.22;;;27.45;74.04
63115;BME280;49208;50.874;6.466;2023-08-20T07:04:14;101080.13;;;28.25;67.44
63115;BME280;49208;50.874;6.466;2023-08-20T07:06:39;101069.56;;;28.84;65.90
63115;BME280;49208;50.874;6.466;2023-08-20T07:09:05;101069.56;;;29.54;61.66
63115;BME280;49208;50.874;6.466;2023-08-20T07:11:30;101063.84;;;30.16;58.45
63115;BME280;49208;50.874;6.466;2023-08-20T07:13:56;101075.09;;;30.47;57.93
63115;BME280;49208;50.874;6.466;2023-08-20T07:16:21;101070.50;;;30.97;57.13
63115;BME280;49208;50.874;6.466;2023-08-20T07:18:46;101069.78;;;31.36;55.33
63115;BME280;49208;50.874;6.466;2023-08-20T07:21:12;101076.09;;;31.61;53.36
63115;BME280;49208;50.874;6.466;2023-08-20T07:23:37;101074.09;;;31.86;53.76
63115;BME280;49208;50.874;6.466;2023-08-20T07:26:07;101081.50;;;32.25;52.02
63115;BME280;49208;50.874;6.466;2023-08-20T07:28:33;101078.94;;;32.47;51.36
63115;BME280;49208;50.874;6.466;2023-08-20T07:31:17;101065.00;;;32.71;49.72
63115;BME280;49208;50.874;6.466;2023-08-20T07:33:46;101073.41;;;33.16;49.59
63115;BME280;49208;50.874;6.466;2023-08-20T07:36:12;101072.38;;;33.17;48.96
63115;BME280;49208;50.874;6.466;2023-08-20T07:38:38;101063.47;;;33.45;47.15
63115;BME280;49208;50.874;6.466;2023-08-20T07:41:06;101071.88;;;33.66;47.98
63115;BME280;49208;50.874;6.466;2023-08-20T07:43:32;101075.47;;;33.52;46.63
63115;BME280;49208;50.874;6.466;2023-08-20T07:45:57;101077.28;;;33.74;48.24
63115;BME280;49208;50.874;6.466;2023-08-20T07:48:22;101082.88;;;33.96;46.00
63115;BME280;49208;50.874;6.466;2023-08-20T07:50:48;101079.06;;;34.12;46.32
63115;BME280;49208;50.874;6.466;2023-08-20T07:53:13;101076.09;;;34.13;47.51
63115;BME280;49208;50.874;6.466;2023-08-20T07:55:39;101076.00;;;34.21;47.82
63115;BME280;49208;50.874;6.466;2023-08-20T07:58:04;101075.94;;;34.36;45.50
63115;BME280;49208;50.874;6.466;2023-08-20T08:00:29;101073.53;;;34.48;45.79
63115;BME280;49208;50.874;6.466;2023-08-20T08:02:55;101068.66;;;34.50;45.37
63115;BME280;49208;50.874;6.466;2023-08-20T08:05:20;101068.78;;;34.42;44.91
63115;BME280;49208;50.874;6.466;2023-08-20T08:07:45;101074.38;;;34.49;46.63
63115;BME280;49208;50.874;6.466;2023-08-20T08:10:11;101081.50;;;34.58;45.00
63115;BME280;49208;50.874;6.466;2023-08-20T08:12:36;101076.03;;;34.43;46.09
63115;BME280;49208;50.874;6.466;2023-08-20T08:15:02;101084.91;;;34.38;46.42
63115;BME280;49208;50.874;6.466;2023-08-20T08:17:27;101083.69;;;34.11;46.71
63115;BME280;49208;50.874;6.466;2023-08-20T08:19:53;101091.44;;;34.01;45.74
63115;BME280;49208;50.874;6.466;2023-08-20T08:22:21;101087.75;;;33.94;48.04
63115;BME280;49208;50.874;6.466;2023-08-20T08:24:47;101083.56;;;33.83;47.61
63115;BME280;49208;50.874;6.466;2023-08-20T08:27:12;101077.09;;;33.46;46.45
63115;BME280;49208;50.874;6.466;2023-08-20T08:29:38;101085.56;;;33.07;50.40
63115;BME280;49208;50.874;6.466;2023-08-20T08:32:03;101080.16;;;32.75;49.48
63115;BME280;49208;50.874;6.466;2023-08-20T08:34:28;101077.78;;;32.41;50.84
63115;BME280;49208;50.874;6.466;2023-08-20T08:36:54;101077.75;;;32.18;50.79
63115;BME280;49208;50.874;6.466;2023-08-20T08:39:19;101082.22;;;31.79;52.73
63115;BME280;49208;50.874;6.466;2023-08-20T08:41:49;101076.13;;;31.53;52.75
63115;BME280;49208;50.874;6.466;2023-08-20T08:44:16;101072.88;;;31.25;56.82
63115;BME280;49208;50.874;6.466;2023-08-20T08:46:42;101077.16;;;31.19;57.35
63115;BME280;49208;50.874;6.466;2023-08-20T08:49:08;101076.50;;;31.17;57.33
63115;BME280;49208;50.874;6.466;2023-08-20T08:51:36;101078.75;;;31.05;57.39
63115;BME280;49208;50.874;6.466;2023-08-20T08:54:02;101083.06;;;30.91;56.58
63115;BME280;49208;50.874;6.466;2023-08-20T08:56:28;101088.19;;;30.78;57.22
63115;BME280;49208;50.874;6.466;2023-08-20T08:58:54;101085.75;;;30.75;57.51
63115;BME280;49208;50.874;6.466;2023-08-20T09:01:19;101084.06;;;30.66;59.76
63115;BME280;49208;50.874;6.466;2023-08-20T09:03:46;101086.63;;;30.51;59.35
63115;BME280;49208;50.874;6.466;2023-08-20T09:06:12;101083.50;;;30.46;60.14
63115;BME280;49208;50.874;6.466;2023-08-20T09:08:37;101088.81;;;30.39;56.04
63115;BME280;49208;50.874;6.466;2023-08-20T09:11:03;101088.66;;;30.32;60.49
63115;BME280;49208;50.874;6.466;2023-08-20T09:13:42;101087.97;;;30.38;61.91
63115;BME280;49208;50.874;6.466;2023-08-20T09:16:09;101079.88;;;30.37;61.48
63115;BME280;49208;50.874;6.466;2023-08-20T09:18:41;101088.19;;;30.61;62.72
63115;BME280;49208;50.874;6.466;2023-08-20T09:21:10;101083.38;;;30.80;61.55
63115;BME280;49208;50.874;6.466;2023-08-20T09:23:36;101076.19;;;30.87;59.87
63115;BME280;49208;50.874;6.466;2023-08-20T09:26:02;101086.66;;;31.00;58.80
63115;BME280;49208;50.874;6.466;2023-08-20T09:28:29;101089.41;;;31.00;58.20
63115;BME280;49208;50.874;6.466;2023-08-20T09:30:58;101080.97;;;30.85;56.36
63115;BME280;49208;50.874;6.466;2023-08-20T09:33:27;101087.19;;;30.87;57.38
63115;BME280;49208;50.874;6.466;2023-08-20T09:35:52;101094.19;;;30.73;57.75
63115;BME280;49208;50.874;6.466;2023-08-20T09:38:19;101098.66;;;30.82;59.89
63115;BME280;49208;50.874;6.466;2023-08-20T09:40:51;101092.16;;;31.00;56.29
63115;BME280;49208;50.874;6.466;2023-08-20T09:43:18;101096.97;;;30.98;54.91
63115;BME280;49208;50.874;6.466;2023-08-20T09:45:43;101093.53;;;31.12;55.11
63115;BME280;49208;50.874;6.466;2023-08-20T09:48:21;101090.25;;;31.09;56.50
63115;BME280;49208;50.874;6.466;2023-08-20T09:50:51;101089.75;;;31.13;58.63
63115;BME280;49208;50.874;6.466;2023-08-20T09:55:52;101084.75;;;31.17;57.48
63115;BME280;49208;50.874;6.466;2023-08-20T09:58:21;101094.53;;;30.62;54.61
63115;BME280;49208;50.874;6.466;2023-08-20T10:00:51;101085.13;;;30.14;55.60
63115;BME280;49208;50.874;6.466;2023-08-20T10:03:19;101096.41;;;29.68;57.45
63115;BME280;49208;50.874;6.466;2023-08-20T10:05:49;101095.25;;;29.18;62.00
63115;BME280;49208;50.874;6.466;2023-08-20T10:08:15;101102.47;;;28.84;61.45
63115;BME280;49208;50.874;6.466;2023-08-20T10:10:40;101093.44;;;28.55;62.52
63115;BME280;49208;50.874;6.466;2023-08-20T10:13:06;101095.13;;;28.38;60.59
63115;BME280;49208;50.874;6.466;2023-08-20T10:15:33;101087.81;;;28.39;61.51
63115;BME280;49208;50.874;6.466;2023-08-20T10:18:01;101092.13;;;28.59;60.28
63115;BME280;49208;50.874;6.466;2023-08-20T10:20:28;101088.75;;;29.01;67.28
63115;BME280;49208;50.874;6.466;2023-08-20T10:23:00;101089.59;;;29.46;64.82
63115;BME280;49208;50.874;6.466;2023-08-20T10:25:26;101093.97;;;29.91;62.96
63115;BME280;49208;50.874;6.466;2023-08-20T10:27:52;101086.34;;;30.28;60.42
63115;BME280;49208;50.874;6.466;2023-08-20T10:30:22;101088.84;;;30.55;60.83
63115;BME280;49208;50.874;6.466;2023-08-20T10:32:55;101088.16;;;30.45;56.37
63115;BME280;49208;50.874;6.466;2023-08-20T10:35:26;101088.69;;;30.06;57.22
63115;BME280;49208;50.874;6.466;2023-08-20T10:38:12;101092.41;;;29.28;57.49
63115;BME280;49208;50.874;6.466;2023-08-20T10:40:55;101086.09;;;29.36;61.54
63115;BME280;49208;50.874;6.466;2023-08-20T10:46:03;101086.75;;;29.90;58.50
63115;BME280;49208;50.874;6.466;2023-08-20T10:48:30;101095.50;;;29.94;60.96
63115;BME280;49208;50.874;6.466;2023-08-20T10:50:56;101089.63;;;29.80;59.42
63115;BME280;49208;50.874;6.466;2023-08-20T10:53:22;101086.72;;;29.56;59.45
63115;BME280;49208;50.874;6.466;2023-08-20T10:55:48;101097.50;;;29.23;62.57
63115;BME280;49208;50.874;6.466;2023-08-20T10:58:13;101094.22;;;29.01;60.75
63115;BME280;49208;50.874;6.466;2023-08-20T11:00:39;101086.88;;;28.84;62.33
63115;BME280;49208;50.874;6.466;2023-08-20T11:03:05;101084.53;;;28.71;63.83
63115;BME280;49208;50.874;6.466;2023-08-20T11:05:31;101087.97;;;28.73;64.39
63115;BME280;49208;50.874;6.466;2023-08-20T11:07:57;101082.50;;;28.91;63.39
63115;BME280;49208;50.874;6.466;2023-08-20T11:10:23;101090.13;;;29.24;63.42
63115;BME280;49208;50.874;6.466;2023-08-20T11:12:49;101084.94;;;29.47;60.54
63115;BME280;49208;50.874;6.466;2023-08-20T11:15:14;101085.00;;;29.55;61.18
63115;BME280;49208;50.874;6.466;2023-08-20T11:17:41;101083.44;;;29.78;61.95
63115;BME280;49208;50.874;6.466;2023-08-20T11:20:07;101081.59;;;29.87;57.92
63115;BME280;49208;50.874;6.466;2023-08-20T11:22:32;101078.69;;;29.89;57.32
63115;BME280;49208;50.874;6.466;2023-08-20T11:24:59;101075.78;;;29.98;56.33
63115;BME280;49208;50.874;6.466;2023-08-20T11:27:28;101081.38;;;30.23;58.27
63115;BME280;49208;50.874;6.466;2023-08-20T11:29:53;101077.41;;;30.26;55.66
63115;BME280;49208;50.874;6.466;2023-08-20T11:32:22;101085.75;;;29.99;55.56
63115;BME280;49208;50.874;6.466;2023-08-20T11:34:48;101078.47;;;29.74;57.47
63115;BME280;49208;50.874;6.466;2023-08-20T11:37:19;101084.97;;;29.73;57.93
63115;BME280;49208;50.874;6.466;2023-08-20T11:39:47;101082.13;;;29.91;57.44
63115;BME280;49208;50.874;6.466;2023-08-20T11:42:13;101079.66;;;29.79;55.14
63115;BME280;49208;50.874;6.466;2023-08-20T11:44:45;101080.81;;;30.03;56.56
63115;BME280;49208;50.874;6.466;2023-08-20T11:47:15;101073.44;;;30.12;51.99
63115;BME280;49208;50.874;6.466;2023-08-20T11:49:41;101071.19;;;29.99;50.80
63115;BME280;49208;50.874;6.466;2023-08-20T11:52:06;101060.53;;;30.04;53.85
63115;BME280;49208;50.874;6.466;2023-08-20T11:54:32;101063.16;;;30.14;56.32
63115;BME280;49208;50.874;6.466;2023-08-20T11:57:02;101063.72;;;30.34;56.02
63115;BME280;49208;50.874;6.466;2023-08-20T11:59:28;101059.84;;;30.53;53.53
63115;BME280;49208;50.874;6.466;2023-08-20T12:01:59;101064.63;;;30.42;55.30
63115;BME280;49208;50.874;6.466;2023-08-20T12:04:31;101061.44;;;30.21;56.85
63115;BME280;49208;50.874;6.466;2023-08-20T12:07:13;101053.22;;;30.21;56.37
63115;BME280;49208;50.874;6.466;2023-08-20T12:09:39;101059.13;;;30.42;57.11
63115;BME280;49208;50.874;6.466;2023-08-20T12:12:08;101053.81;;;30.49;55.01
63115;BME280;49208;50.874;6.466;2023-08-20T12:14:34;101043.81;;;30.40;55.12
63115;BME280;49208;50.874;6.466;2023-08-20T12:17:00;101047.53;;;30.14;56.35
63115;BME280;49208;50.874;6.466;2023-08-20T12:19:25;101045.13;;;30.03;57.35
63115;BME280;49208;50.874;6.466;2023-08-20T12:21:51;101037.06;;;30.10;57.36
63115;BME280;49208;50.874;6.466;2023-08-20T12:24:17;101040.31;;;30.21;55.96
63115;BME280;49208;50.874;6.466;2023-08-20T12:26:44;101044.50;;;30.42;56.34
63115;BME280;49208;50.874;6.466;2023-08-20T12:29:09;101036.13;;;30.52;54.85
63115;BME280;49208;50.874;6.466;2023-08-20T12:31:35;101035.59;;;30.56;52.47
63115;BME280;49208;50.874;6.466;2023-08-20T12:34:03;101038.31;;;30.32;55.43
63115;BME280;49208;50.874;6.466;2023-08-20T12:36:28;101032.91;;;29.97;52.79
63115;BME280;49208;50.874;6.466;2023-08-20T12:38:54;101035.19;;;29.68;56.33
63115;BME280;49208;50.874;6.466;2023-08-20T12:41:20;101035.19;;;29.68;56.07
63115;BME280;49208;50.874;6.466;2023-08-20T12:43:45;101031.47;;;29.77;54.99
63115;BME280;49208;50.874;6.466;2023-08-20T12:46:11;101032.00;;;29.54;55.98
63115;BME280;49208;50.874;6.466;2023-08-20T12:48:37;101039.06;;;29.23;55.81
63115;BME280;49208;50.874;6.466;2023-08-20T12:51:03;101032.31;;;29.17;57.68
63115;BME280;49208;50.874;6.466;2023-08-20T12:53:28;101026.78;;;29.35;57.52
63115;BME280;49208;50.874;6.466;2023-08-20T12:55:54;101029.63;;;29.51;56.20
63115;BME280;49208;50.874;6.466;2023-08-20T12:58:19;101026.72;;;29.61;55.86
63115;BME280;49208;50.874;6.466;2023-08-20T13:00:46;101019.41;;;29.70;53.44
63115;BME280;49208;50.874;6.466;2023-08-20T13:03:11;101020.13;;;29.80;52.78
63115;BME280;49208;50.874;6.466;2023-08-20T13:05:37;101025.31;;;29.83;54.84
63115;BME280;49208;50.874;6.466;2023-08-20T13:08:03;101012.31;;;29.93;53.46
63115;BME280;49208;50.874;6.466;2023-08-20T13:10:29;101023.94;;;29.87;54.22
63115;BME280;49208;50.874;6.466;2023-08-20T13:13:00;101021.91;;;29.89;53.24
63115;BME280;49208;50.874;6.466;2023-08-20T13:15:25;101015.22;;;30.00;51.30
63115;BME280;49208;50.874;6.466;2023-08-20T13:17:51;101016.44;;;29.97;50.89
63115;BME280;49208;50.874;6.466;2023-08-20T13:20:17;101021.78;;;29.99;51.82
63115;BME280;49208;50.874;6.466;2023-08-20T13:22:51;101018.84;;;30.09;51.55
63115;BME280;49208;50.874;6.466;2023-08-20T13:25:17;101027.09;;;30.17;51.46
63115;BME280;49208;50.874;6.466;2023-08-20T13:27:43;101022.47;;;30.26;53.59
63115;BME280;49208;50.874;6.466;2023-08-20T13:30:10;101034.16;;;30.28;50.89
63115;BME280;49208;50.874;6.466;2023-08-20T13:32:35;101019.41;;;30.20;50.70
63115;BME280;49208;50.874;6.466;2023-08-20T13:35:01;101023.66;;;30.07;50.58
63115;BME280;49208;50.874;6.466;2023-08-20T13:37:28;101028.19;;;29.73;50.52
63115;BME280;49208;50.874;6.466;2023-08-20T13:39:53;101024.81;;;29.53;51.01
63115;BME280;49208;50.874;6.466;2023-08-20T13:42:19;101009.19;;;29.46;50.14
63115;BME280;49208;50.874;6.466;2023-08-20T13:44:44;101022.75;;;29.47;51.00
63115;BME280;49208;50.874;6.466;2023-08-20T13:47:09;101015.59;;;29.62;52.86
63115;BME280;49208;50.874;6.466;2023-08-20T13:49:35;101023.38;;;29.75;52.74
63115;BME280;49208;50.874;6.466;2023-08-20T13:52:00;101012.44;;;29.84;52.82
63115;BME280;49208;50.874;6.466;2023-08-20T13:54:26;101018.03;;;29.66;52.70
63115;BME280;49208;50.874;6.466;2023-08-20T13:56:51;101023.94;;;29.53;52.78
63115;BME280;49208;50.874;6.466;2023-08-20T13:59:16;101016.47;;;29.29;51.87
63115;BME280;49208;50.874;6.466;2023-08-20T14:01:42;101024.19;;;29.33;53.12
63115;BME280;49208;50.874;6.466;2023-08-20T14:04:07;101020.59;;;29.33;53.37
63115;BME280;49208;50.874;6.466;2023-08-20T14:06:32;101011.75;;;29.13;52.95
63115;BME280;49208;50.874;6.466;2023-08-20T14:08:58;101015.19;;;28.97;54.54
63115;BME280;49208;50.874;6.466;2023-08-20T14:11:23;101011.88;;;28.85;53.42
63115;BME280;49208;50.874;6.466;2023-08-20T14:13:49;101014.47;;;28.87;52.10
63115;BME280;49208;50.874;6.466;2023-08-20T14:16:14;101013.84;;;29.01;51.32
63115;BME280;49208;50.874;6.466;2023-08-20T14:18:39;101014.78;;;29.10;51.22
63115;BME280;49208;50.874;6.466;2023-08-20T14:21:05;101012.84;;;29.20;49.66
63115;BME280;49208;50.874;6.466;2023-08-20T14:23:31;101013.19;;;29.25;51.99
63115;BME280;49208;50.874;6.466;2023-08-20T14:25:56;101012.19;;;29.34;50.73
63115;BME280;49208;50.874;6.466;2023-08-20T14:28:22;101006.41;;;29.37;51.98
63115;BME280;49208;50.874;6.466;2023-08-20T14:30:48;101006.06;;;29.40;51.13
63115;BME280;49208;50.874;6.466;2023-08-20T14:33:15;100994.94;;;29.42;51.53
63115;BME280;49208;50.874;6.466;2023-08-20T14:35:40;100996.81;;;29.41;52.35
63115;BME280;49208;50.874;6.466;2023-08-20T14:38:06;100993.38;;;29.39;52.03
63115;BME280;49208;50.874;6.466;2023-08-20T14:40:36;100991.44;;;29.32;51.25
63115;BME280;49208;50.874;6.466;2023-08-20T14:43:01;100992.69;;;29.11;52.72
63115;BME280;49208;50.874;6.466;2023-08-20T14:45:28;100986.19;;;28.86;54.73
63115;BME280;49208;50.874;6.466;2023-08-20T14:47:54;100991.28;;;28.81;52.85
63115;BME280;49208;50.874;6.466;2023-08-20T14:50:19;100991.16;;;28.91;51.35
63115;BME280;49208;50.874;6.466;2023-08-20T14:52:44;100991.72;;;28.94;51.60
63115;BME280;49208;50.874;6.466;2023-08-20T14:55:11;100990.72;;;28.95;51.82
63115;BME280;49208;50.874;6.466;2023-08-20T14:57:36;100975.13;;;28.96;51.62
63115;BME280;49208;50.874;6.466;2023-08-20T15:00:03;100978.22;;;29.01;51.08
63115;BME280;49208;50.874;6.466;2023-08-20T15:02:32;100982.69;;;29.02;51.85
63115;BME280;49208;50.874;6.466;2023-08-20T15:04:57;100985.78;;;29.07;53.25
63115;BME280;49208;50.874;6.466;2023-08-20T15:07:23;100980.03;;;29.10;51.50
63115;BME280;49208;50.874;6.466;2023-08-20T15:09:49;100973.97;;;29.07;51.97
63115;BME280;49208;50.874;6.466;2023-08-20T15:12:14;100974.56;;;29.10;51.60
63115;BME280;49208;50.874;6.466;2023-08-20T15:14:39;100979.47;;;29.07;50.87
63115;BME280;49208;50.874;6.466;2023-08-20T15:17:05;100986.69;;;29.08;51.35
63115;BME280;49208;50.874;6.466;2023-08-20T15:19:30;100976.41;;;29.10;50.46
63115;BME280;49208;50.874;6.466;2023-08-20T15:21:55;100977.69;;;28.97;51.18
63115;BME280;49208;50.874;6.466;2023-08-20T15:24:21;100974.56;;;28.92;50.13
63115;BME280;49208;50.874;6.466;2023-08-20T15:26:46;100978.50;;;28.90;50.77
63115;BME280;49208;50.874;6.466;2023-08-20T15:29:11;100976.25;;;28.85;52.32
63115;BME280;49208;50.874;6.466;2023-08-20T15:31:38;100975.22;;;28.86;51.87
63115;BME280;49208;50.874;6.466;2023-08-20T15:34:03;100972.47;;;28.86;53.62
63115;BME280;49208;50.874;6.466;2023-08-20T15:36:29;100970.91;;;28.84;54.08
63115;BME280;49208;50.874;6.466;2023-08-20T15:38:54;100977.59;;;28.81;53.96
63115;BME280;49208;50.874;6.466;2023-08-20T15:41:19;100967.97;;;28.77;54.70
63115;BME280;49208;50.874;6.466;2023-08-20T15:43:45;100970.88;;;28.75;55.06
63115;BME280;49208;50.874;6.466;2023-08-20T15:46:10;100972.06;;;28.73;53.67
63115;BME280;49208;50.874;6.466;2023-08-20T15:48:35;100974.94;;;28.71;53.85
63115;BME280;49208;50.874;6.466;2023-08-20T15:51:01;100974.63;;;28.74;53.18
63115;BME280;49208;50.874;6.466;2023-08-20T15:53:26;100980.75;;;28.68;51.72
63115;BME280;49208;50.874;6.466;2023-08-20T15:55:52;100972.84;;;28.65;51.86
63115;BME280;49208;50.874;6.466;2023-08-20T15:58:17;100966.75;;;28.53;53.09
63115;BME280;49208;50.874;6.466;2023-08-20T16:00:42;100971.13;;;28.46;51.64
63115;BME280;49208;50.874;6.466;2023-08-20T16:03:08;100975.69;;;28.37;51.72
63115;BME280;49208;50.874;6.466;2023-08-20T16:05:34;100974.19;;;28.25;53.87
63115;BME280;49208;50.874;6.466;2023-08-20T16:07:59;100967.38;;;28.11;53.51
63115;BME280;49208;50.874;6.466;2023-08-20T16:10:25;100964.97;;;28.08;54.07
63115;BME280;49208;50.874;6.466;2023-08-20T16:12:50;100960.66;;;28.06;54.65
63115;BME280;49208;50.874;6.466;2023-08-20T16:15:16;100966.78;;;27.99;56.04
63115;BME280;49208;50.874;6.466;2023-08-20T16:17:42;100965.97;;;27.89;56.71
63115;BME280;49208;50.874;6.466;2023-08-20T16:20:08;100963.66;;;27.85;56.84
63115;BME280;49208;50.874;6.466;2023-08-20T16:22:33;100967.00;;;27.78;55.30
63115;BME280;49208;50.874;6.466;2023-08-20T16:24:59;100967.63;;;27.72;56.62
63115;BME280;49208;50.874;6.466;2023-08-20T16:27:24;100973.41;;;27.69;55.54
63115;BME280;49208;50.874;6.466;2023-08-20T16:29:49;100967.53;;;27.64;56.59
63115;BME280;49208;50.874;6.466;2023-08-20T16:32:15;100967.13;;;27.59;56.37
63115;BME280;49208;50.874;6.466;2023-08-20T16:34:40;100964.63;;;27.48;56.00
63115;BME280;49208;50.874;6.466;2023-08-20T16:37:07;100971.44;;;27.34;56.76
63115;BME280;49208;50.874;6.466;2023-08-20T16:39:33;100967.88;;;27.14;58.96
63115;BME280;49208;50.874;6.466;2023-08-20T16:41:58;100972.69;;;27.02;59.12
63115;BME280;49208;50.874;6.466;2023-08-20T16:44:24;100974.88;;;26.89;60.28
63115;BME280;49208;50.874;6.466;2023-08-20T16:46:49;100973.03;;;26.79;59.81
63115;BME280;49208;50.874;6.466;2023-08-20T16:49:14;100975.47;;;26.73;60.97
63115;BME280;49208;50.874;6.466;2023-08-20T16:51:40;100971.34;;;26.69;60.01
63115;BME280;49208;50.874;6.466;2023-08-20T16:54:05;100974.63;;;26.72;58.54
63115;BME280;49208;50.874;6.466;2023-08-20T16:56:32;100969.59;;;26.77;57.72
63115;BME280;49208;50.874;6.466;2023-08-20T16:58:57;100965.97;;;26.77;57.32
63115;BME280;49208;50.874;6.466;2023-08-20T17:01:23;100965.44;;;26.73;57.79
63115;BME280;49208;50.874;6.466;2023-08-20T17:03:49;100960.09;;;26.72;58.11
63115;BME280;49208;50.874;6.466;2023-08-20T17:06:15;100970.47;;;26.68;58.44
63115;BME280;49208;50.874;6.466;2023-08-20T17:08:42;100973.78;;;26.62;57.83
63115;BME280;49208;50.874;6.466;2023-08-20T17:11:08;100975.97;;;26.58;58.84
63115;BME280;49208;50.874;6.466;2023-08-20T17:13:35;100969.16;;;26.53;58.49
63115;BME280;49208;50.874;6.466;2023-08-20T17:16:01;100968.00;;;26.55;59.14
63115;BME280;49208;50.874;6.466;2023-08-20T17:18:26;100967.16;;;26.55;58.83
63115;BME280;49208;50.874;6.466;2023-08-20T17:20:52;100966.72;;;26.50;57.95
63115;BME280;49208;50.874;6.466;2023-08-20T17:23:18;100967.28;;;26.53;58.30
63115;BME280;49208;50.874;6.466;2023-08-20T17:25:43;100966.72;;;26.50;58.17
63115;BME280;49208;50.874;6.466;2023-08-20T17:28:08;100966.31;;;26.45;58.62
63115;BME280;49208;50.874;6.466;2023-08-20T17:30:34;100965.44;;;26.34;58.35
63115;BME280;49208;50.874;6.466;2023-08-20T17:33:00;100973.34;;;26.28;58.35
63115;BME280;49208;50.874;6.466;2023-08-20T17:35:25;100969.47;;;26.20;58.66
63115;BME280;49208;50.874;6.466;2023-08-20T17:37:51;100974.50;;;26.15;59.35
63115;BME280;49208;50.874;6.466;2023-08-20T17:40:16;100975.50;;;26.14;59.54
63115;BME280;49208;50.874;6.466;2023-08-20T17:42:41;100974.94;;;26.11;59.07
63115;BME280;49208;50.874;6.466;2023-08-20T17:45:07;100973.63;;;26.05;58.95
63115;BME280;49208;50.874;6.466;2023-08-20T17:47:36;100979.66;;;25.99;59.19
63115;BME280;49208;50.874;6.466;2023-08-20T17:50:03;100971.91;;;25.94;59.86
63115;BME280;49208;50.874;6.466;2023-08-20T17:52:29;100972.16;;;25.91;61.09
63115;BME280;49208;50.874;6.466;2023-08-20T17:54:54;100980.63;;;25.88;60.95
63115;BME280;49208;50.874;6.466;2023-08-20T17:57:20;100971.84;;;25.85;61.50
63115;BME280;49208;50.874;6.466;2023-08-20T17:59:46;100972.28;;;25.80;61.49
63115;BME280;49208;50.874;6.466;2023-08-20T18:02:11;100971.69;;;25.76;61.80
63115;BME280;49208;50.874;6.466;2023-08-20T18:04:36;100981.44;;;25.69;62.71
63115;BME280;49208;50.874;6.466;2023-08-20T18:07:02;100978.38;;;25.63;61.69
63115;BME280;49208;50.874;6.466;2023-08-20T18:09:29;100978.94;;;25.56;61.32
63115;BME280;49208;50.874;6.466;2023-08-20T18:11:57;100976.38;;;25.55;62.21
63115;BME280;49208;50.874;6.466;2023-08-20T18:14:22;100971.31;;;25.50;61.61
63115;BME280;49208;50.874;6.466;2023-08-20T18:16:48;100974.75;;;25.43;61.23
63115;BME280;49208;50.874;6.466;2023-08-20T18:19:13;100984.47;;;25.35;61.25
63115;BME280;49208;50.874;6.466;2023-08-20T18:21:38;100970.94;;;25.24;62.11
63115;BME280;49208;50.874;6.466;2023-08-20T18:24:04;100978.19;;;25.14;62.41
63115;BME280;49208;50.874;6.466;2023-08-20T18:26:29;100981.88;;;25.03;63.21
63115;BME280;49208;50.874;6.466;2023-08-20T18:28:55;100972.06;;;24.91;64.27
63115;BME280;49208;50.874;6.466;2023-08-20T18:31:20;100978.81;;;24.75;63.87
63115;BME280;49208;50.874;6.466;2023-08-20T18:33:45;100977.03;;;24.65;64.90
63115;BME280;49208;50.874;6.466;2023-08-20T18:36:11;100978.09;;;24.52;66.52
63115;BME280;49208;50.874;6.466;2023-08-20T18:38:38;100976.25;;;24.41;66.50
63115;BME280;49208;50.874;6.466;2023-08-20T18:41:03;100980.03;;;24.29;67.05
63115;BME280;49208;50.874;6.466;2023-08-20T18:43:30;100990.25;;;24.16;68.40
63115;BME280;49208;50.874;6.466;2023-08-20T18:45:57;100996.81;;;24.02;70.24
63115;BME280;49208;50.874;6.466;2023-08-20T18:48:23;100995.25;;;23.88;70.07
63115;BME280;49208;50.874;6.466;2023-08-20T18:50:48;100995.38;;;23.75;71.42